Tuesday, May 31, 2016, 11:30 PM EDT

KRIC, Richmond International Airport

Location: Sandston, VA, United States Lat: 37.517
Local Time: 11:30 PM EDT ( 3:30 GMT) Lon: -77.317
Time Zone: US/Eastern Elev: 167 ft

Show me the last for .
Show Decoded

2016-05-31 22:54 METAR KRIC 010254Z 13005KT 10SM FEW200 22/19 A3000 RMK AO2 SLP162 T02170194
                 53015 =
2016-05-31 21:54 METAR KRIC 010154Z 12003KT 10SM SCT200 23/20 A2999 =
2016-05-31 20:54 METAR KRIC 010054Z 11004KT 10SM SCT200 24/20 A2997 RMK AO2 SLP151 T02390200 =
2016-05-31 19:54 METAR KRIC 312354Z 10006KT 10SM FEW040 SCT200 26/20 A2995 RMK AO2 SLP147
                 T02560200 10289 20256 53004 =
2016-05-31 18:54 METAR KRIC 312254Z 12008KT 10SM FEW040 SCT200 27/20 A2995 RMK AO2 SLP144
                 T02670200 =
2016-05-31 17:54 METAR KRIC 312154Z 10007KT 10SM SCT040TCU SCT200 28/19 A2994 RMK AO2 SLP142 TCU
                 E T02780194 =
2016-05-31 16:54 METAR KRIC 312054Z 08008KT 10SM SCT036 SCT200 28/21 A2994 RMK AO2 SLP142
                 T02830206 56012 =
2016-05-31 15:54 METAR KRIC 311954Z 07007KT 10SM SCT036 BKN200 28/19 A2995 RMK AO2 SLP144
                 T02780194 =
2016-05-31 14:54 METAR KRIC 311854Z 04006KT 10SM SCT031 BKN180 28/19 A2996 =
2016-05-31 13:54 METAR KRIC 311754Z VRB06KT 10SM SCT031 BKN180 27/19 A2998 RMK AO2 SLP154
                 T02670189 10272 20194 58006 =
2016-05-31 12:54 METAR KRIC 311654Z 04003KT 10SM SCT026 BKN180 27/20 A2998 RMK AO2 SLP157
                 T02670200 =
2016-05-31 11:54 METAR KRIC 311554Z VRB04KT 10SM SCT020 BKN180 26/20 A2999 RMK AO2 SLP158
                 T02560200 =
2016-05-31 10:54 METAR KRIC 311454Z 12003KT 10SM SCT010 BKN180 24/19 A2999 RMK AO2 SLP160
                 T02390194 50003 =
2016-05-31 10:15 METAR KRIC 311415Z 09005KT 10SM SCT009 BKN180 22/19 A2999 RMK AO2 T02170194 =
2016-05-31 09:54 METAR KRIC 311354Z 04006KT 10SM BKN007 BKN011 BKN180 22/19 A3000 RMK AO2 CIG
                 006V010 SLP161 T02170194 =
2016-05-31 08:54 METAR KRIC 311254Z 04005KT 10SM BKN005 OVC041 20/19 A3000 RMK AO2 CIG 003V007
                 SLP161 T02000194 =
2016-05-31 07:54 METAR KRIC 311154Z 00000KT 8SM BKN004 BKN041 OVC210 19/19 A2998 RMK AO2 SLP157
                 70043 T01940189 10194 20183 53014 =
2016-05-31 07:42 METAR KRIC 311142Z 00000KT 6SM BR BKN004 OVC041 19/18 A2998 RMK AO2 T01940183 =
2016-05-31 07:08 METAR KRIC 311108Z 00000KT 6SM BR SCT002 SCT006 BKN042 OVC210 19/19 A2996 RMK
                 AO2 T01890189 =
2016-05-31 06:54 METAR KRIC 311054Z 00000KT 1/4SM R34/P6000FT FG BKN002 BKN006 OVC042 18/18 A2996
                 RMK AO2 SLP149 T01830183 =
2016-05-31 06:45 METAR KRIC 311045Z 06003KT 1/4SM R34/4000VP6000FT FG BKN002 BKN006 BKN041 OVC210
                 18/18 A2996 RMK AO2 T01830183 =
2016-05-31 05:54 METAR KRIC 310954Z 00000KT 5SM BR FEW009 BKN041 OVC210 19/18 A2994 RMK AO2
                 SLP142 T01890183 =
2016-05-31 04:54 METAR KRIC 310854Z 00000KT 6SM BR FEW002 SCT006 BKN038 OVC200 18/18 A2994 RMK
                 AO2 SLP143 VIS SW-NW 1 1/2 T01830183 55003 =
2016-05-31 04:45 METAR KRIC 310845Z 33003KT 1 1/4SM BR SCT002 BKN006 BKN038 OVC200 18/18 A2994
                 RMK AO2 VIS S-W 1/2 T01830183 =
2016-05-31 04:34 METAR KRIC 310834Z 35003KT 1/4SM R34/P6000FT FG BKN002 BKN005 OVC036 18/18 A2994
                 RMK AO2 T01830183 =
2016-05-31 03:54 METAR KRIC 310754Z 00000KT 1/8SM R34/2400V2600FT FG BKN002 BKN006 OVC042 18/18
                 A2994 RMK AO2 SLP141 T01830183 =
2016-05-31 02:54 METAR KRIC 310654Z 00000KT 1/4SM R34/3000VP6000FT FG BKN002 BKN007 OVC045 18/18
                 A2995 RMK AO2 SLP144 T01830183 =
2016-05-31 02:43 METAR KRIC 310643Z 15003KT 1/4SM R34/P6000FT FG SCT001 BKN005 BKN045 18/18 A2995
                 RMK AO2 T01830183 =
2016-05-31 01:54 METAR KRIC 310554Z 00000KT 10SM BCFG FEW007 SCT045 BKN070 19/19 A2995 RMK AO2
                 SLP146 T01890189 10211 20183 58010 =
2016-05-31 00:54 METAR KRIC 310454Z 00000KT 10SM R34/6000VP6000FT FEW011 BKN043 BKN075 19/19
                 A2996 RMK AO2 SLP149 T01940189 402500189 =
2016-05-30 23:54 METAR KRIC 310354Z 12003KT 10SM SCT010 SCT075 BKN250 19/19 A2998 RMK AO2 SLP154
                 T01940189 =

Support USWX by starting your Amazon purchase here.